Time;durP1;ratioP1;P1;durP2;ratioP2;P2;SDS_P1;SDS_P2;PMS_P1;PMS_P2;Temp;Humidity;BMP_temperature;BMP_pressure;BME280_temperature;BME280_humidity;BME280_pressure;Samples;Min_cycle;Max_cycle;Signal;HPM_P1;HPM_P2
2022/12/23 00:00:11;;;;;;;28.63;10.13;;;8.30;99.90;;;;;;5057525;28;20083;-74
2022/12/23 00:02:36;;;;;;;21.58;8.70;;;8.30;99.90;;;;;;4356425;28;9999945;-74
2022/12/23 00:05:03;;;;;;;22.73;9.38;;;8.30;99.90;;;;;;5057150;28;20032;-73
2022/12/23 00:07:28;;;;;;;22.35;9.68;;;8.20;99.90;;;;;;5059169;28;20287;-74
2022/12/23 00:09:54;;;;;;;23.85;9.02;;;8.20;99.90;;;;;;5053910;28;20267;-74
2022/12/23 00:15:05;;;;;;;18.75;8.57;;;8.20;99.90;;;;;;5059564;28;20140;-74
2022/12/23 00:17:34;;;;;;;19.95;7.82;;;8.30;99.90;;;;;;5056584;28;20028;-73
2022/12/23 00:20:01;;;;;;;19.98;7.43;;;8.20;99.90;;;;;;5056794;28;20577;-74
2022/12/23 00:25:12;;;;;;;19.70;7.13;;;8.20;99.90;;;;;;5055828;28;20128;-73
2022/12/23 00:27:38;;;;;;;20.75;7.75;;;8.20;99.90;;;;;;5059704;28;20053;-73
2022/12/23 00:30:05;;;;;;;20.88;7.47;;;8.20;99.90;;;;;;5055662;28;20028;-73
2022/12/23 00:32:31;;;;;;;20.88;7.40;;;8.20;99.90;;;;;;5056445;28;20036;-74
2022/12/23 00:34:56;;;;;;;14.73;7.03;;;8.20;99.90;;;;;;5059672;28;20269;-73
2022/12/23 00:37:22;;;;;;;20.13;7.40;;;8.20;99.90;;;;;;5057910;28;20036;-74
2022/12/23 00:45:16;;;;;;;16.52;6.43;;;8.30;99.90;;;;;;5057919;28;20085;-74
2022/12/23 00:50:34;;;;;;;16.52;6.95;;;8.30;99.90;;;;;;5056133;28;20044;-74
2022/12/23 00:52:59;;;;;;;19.05;7.03;;;8.30;99.90;;;;;;5057450;28;20165;-73
2022/12/23 00:55:25;;;;;;;16.15;6.90;;;8.30;99.90;;;;;;5057601;28;20537;-74
2022/12/23 00:57:51;;;;;;;22.52;7.18;;;8.30;99.90;;;;;;5054127;28;20517;-74
2022/12/23 01:00:17;;;;;;;13.20;6.65;;;8.30;99.90;;;;;;5043388;28;20047;-73
2022/12/23 01:05:36;;;;;;;14.57;7.22;;;8.30;99.90;;;;;;5057972;28;20039;-74
2022/12/23 01:08:06;;;;;;;15.30;6.45;;;8.30;99.90;;;;;;5058084;28;20028;-74
2022/12/23 01:10:39;;;;;;;17.25;6.43;;;8.30;99.90;;;;;;5052952;28;20791;-74
2022/12/23 01:13:05;;;;;;;13.43;6.47;;;8.30;99.90;;;;;;5057041;28;20031;-74
2022/12/23 01:15:31;;;;;;;13.40;6.25;;;8.30;99.90;;;;;;5057544;28;20044;-74
2022/12/23 01:17:57;;;;;;;15.98;6.68;;;8.30;99.90;;;;;;5058480;28;20114;-74
2022/12/23 01:20:23;;;;;;;15.18;6.18;;;8.30;99.90;;;;;;5057893;28;20032;-75
2022/12/23 01:22:49;;;;;;;16.58;6.85;;;8.30;99.90;;;;;;5056548;28;20032;-74
2022/12/23 01:25:16;;;;;;;14.15;6.57;;;8.30;99.90;;;;;;5058909;28;20112;-74
2022/12/23 01:27:42;;;;;;;18.65;6.60;;;8.30;99.90;;;;;;5055904;28;20043;-74
2022/12/23 01:30:08;;;;;;;15.02;6.65;;;8.30;99.90;;;;;;5056939;28;20028;-73
2022/12/23 01:32:34;;;;;;;18.65;6.30;;;8.30;99.90;;;;;;5057426;28;20156;-73
2022/12/23 01:34:59;;;;;;;15.85;6.82;;;8.30;99.90;;;;;;5055966;28;20036;-73
2022/12/23 01:37:25;;;;;;;13.75;6.50;;;8.30;99.90;;;;;;5057358;28;20129;-73
2022/12/23 01:39:50;;;;;;;12.57;6.43;;;8.20;99.90;;;;;;5055294;28;20036;-74
2022/12/23 01:45:23;;;;;;;13.32;6.28;;;8.20;99.90;;;;;;5056274;28;20165;-73
2022/12/23 01:47:56;;;;;;;14.73;6.03;;;8.20;99.90;;;;;;5055485;28;20121;-73
2022/12/23 01:50:31;;;;;;;14.57;6.80;;;8.20;99.90;;;;;;5055090;28;20055;-74
2022/12/23 01:53:02;;;;;;;14.82;6.43;;;8.20;99.90;;;;;;5054322;28;20039;-74
2022/12/23 01:55:31;;;;;;;16.45;6.07;;;8.20;99.90;;;;;;5061863;28;20095;-73
2022/12/23 01:58:27;;;;;;;15.93;5.53;;;8.20;99.90;;;;;;5056111;28;20131;-73
2022/12/23 02:03:42;;;;;;;11.82;5.75;;;8.20;99.90;;;;;;5055248;28;20116;-74
2022/12/23 02:09:20;;;;;;;13.02;6.25;;;8.20;99.90;;;;;;5056203;28;20121;-74
2022/12/23 02:11:48;;;;;;;13.75;5.70;;;8.20;99.90;;;;;;5053551;28;20493;-74
2022/12/23 02:17:29;;;;;;;11.80;6.00;;;8.10;99.90;;;;;;5054779;28;20151;-74
2022/12/23 02:20:22;;;;;;;18.30;5.82;;;8.10;99.90;;;;;;5059977;28;20073;-74
2022/12/23 02:23:12;;;;;;;13.00;5.95;;;8.10;99.90;;;;;;5055373;28;20428;-74
2022/12/23 02:25:59;;;;;;;12.57;5.43;;;8.10;99.90;;;;;;5055126;28;20133;-74
2022/12/23 02:28:43;;;;;;;15.32;6.18;;;8.10;99.90;;;;;;5057329;28;20120;-73
2022/12/23 02:31:23;;;;;;;15.27;6.07;;;8.10;99.90;;;;;;5055382;28;20031;-74
2022/12/23 02:34:02;;;;;;;10.00;5.78;;;8.10;99.90;;;;;;5057558;28;20032;-74
2022/12/23 02:37:05;;;;;;;9.27;5.28;;;8.10;99.90;;;;;;5055244;28;20034;-74
2022/12/23 02:39:55;;;;;;;13.25;5.60;;;8.10;99.90;;;;;;5061622;28;20478;-74
2022/12/23 02:42:49;;;;;;;14.43;5.50;;;8.10;99.90;;;;;;5055198;28;20408;-74
2022/12/23 02:45:17;;;;;;;12.43;5.47;;;8.10;99.90;;;;;;5057598;28;21113;-73
2022/12/23 02:47:53;;;;;;;13.13;6.07;;;8.10;99.90;;;;;;5058178;28;20040;-73
2022/12/23 02:50:26;;;;;;;14.90;5.88;;;8.10;99.90;;;;;;5063613;28;20104;-73
2022/12/23 02:52:56;;;;;;;10.05;5.40;;;8.10;99.90;;;;;;5052500;28;20036;-73
2022/12/23 02:55:28;;;;;;;14.27;6.25;;;8.20;99.90;;;;;;5050359;28;20399;-73
2022/12/23 02:57:55;;;;;;;11.32;5.85;;;8.20;99.90;;;;;;5058412;28;21270;-73
2022/12/23 03:00:22;;;;;;;11.10;5.75;;;8.20;99.90;;;;;;5061341;28;20064;-74
2022/12/23 03:02:48;;;;;;;10.18;5.10;;;8.20;99.90;;;;;;5053516;28;20039;-73
2022/12/23 03:05:33;;;;;;;11.20;4.85;;;8.10;99.90;;;;;;5058801;28;20117;-74
2022/12/23 03:08:02;;;;;;;9.25;5.00;;;8.10;99.90;;;;;;5059757;28;20032;-74
2022/12/23 03:10:43;;;;;;;8.52;5.00;;;8.10;99.90;;;;;;5046484;28;20578;-74
2022/12/23 03:13:28;;;;;;;7.40;4.50;;;8.10;99.90;;;;;;5055566;28;20063;-74
2022/12/23 03:16:18;;;;;;;8.25;4.97;;;8.10;99.90;;;;;;5052172;28;20305;-74
2022/12/23 03:19:19;;;;;;;10.45;4.90;;;8.10;99.90;;;;;;5060936;28;20044;-74
2022/12/23 03:21:51;;;;;;;11.95;5.32;;;8.10;99.90;;;;;;5047608;28;20561;-74
2022/12/23 03:24:48;;;;;;;11.63;5.40;;;8.00;99.90;;;;;;5051766;28;20059;-74
2022/12/23 03:27:25;;;;;;;10.50;5.43;;;8.00;99.90;;;;;;5055413;28;20032;-74
2022/12/23 03:30:09;;;;;;;11.02;5.40;;;8.00;99.90;;;;;;5055269;28;20043;-74
2022/12/23 03:33:13;;;;;;;11.88;5.68;;;8.00;99.90;;;;;;5054649;28;21035;-74
2022/12/23 03:35:44;;;;;;;10.48;5.72;;;8.00;99.90;;;;;;5051434;28;20119;-74
2022/12/23 03:38:12;;;;;;;8.63;4.90;;;8.00;99.90;;;;;;5059683;28;20102;-73
2022/12/23 03:40:42;;;;;;;10.90;5.82;;;7.90;99.90;;;;;;5058542;28;20093;-74
2022/12/23 03:43:17;;;;;;;7.47;5.50;;;8.00;99.90;;;;;;5054494;28;20036;-74
2022/12/23 03:45:49;;;;;;;10.00;6.05;;;8.00;99.90;;;;;;5063877;28;20101;-74
2022/12/23 03:48:32;;;;;;;11.43;5.82;;;7.90;99.90;;;;;;5055512;28;20040;-74
2022/12/23 03:51:04;;;;;;;10.02;5.63;;;7.90;99.90;;;;;;5055596;28;20043;-74
2022/12/23 03:53:38;;;;;;;12.93;6.03;;;7.90;99.90;;;;;;5054147;28;20091;-73
2022/12/23 03:56:09;;;;;;;11.68;5.97;;;7.90;99.90;;;;;;5051812;28;20062;-74
2022/12/23 03:58:44;;;;;;;11.35;5.78;;;7.90;99.90;;;;;;5060058;28;20035;-74
2022/12/23 04:01:48;;;;;;;9.90;5.47;;;7.90;99.90;;;;;;5057384;28;20107;-73
2022/12/23 04:04:17;;;;;;;9.43;4.80;;;7.90;99.90;;;;;;5056907;28;20028;-73
2022/12/23 04:06:56;;;;;;;10.45;5.93;;;7.90;99.90;;;;;;5056688;28;20043;-73
2022/12/23 04:09:24;;;;;;;12.32;6.25;;;7.90;99.90;;;;;;5058133;28;20031;-73
2022/12/23 04:11:51;;;;;;;14.13;6.13;;;7.90;99.90;;;;;;5056691;28;20051;-73
2022/12/23 04:14:18;;;;;;;10.38;5.60;;;7.90;99.90;;;;;;5053370;28;20077;-73
2022/12/23 04:16:45;;;;;;;11.82;6.10;;;7.90;99.90;;;;;;5058428;28;20325;-73
2022/12/23 04:19:10;;;;;;;9.93;5.63;;;7.90;99.90;;;;;;5059340;28;20032;-73
2022/12/23 04:21:36;;;;;;;10.73;5.88;;;7.90;99.90;;;;;;5056192;28;20024;-73
2022/12/23 04:24:02;;;;;;;9.88;5.68;;;7.80;99.90;;;;;;5053175;28;20020;-73
2022/12/23 04:26:27;;;;;;;13.05;5.43;;;7.80;99.90;;;;;;5057394;28;20593;-74
2022/12/23 04:28:53;;;;;;;10.55;5.55;;;7.80;99.90;;;;;;5055330;28;20435;-74
2022/12/23 04:31:18;;;;;;;11.90;5.38;;;7.80;99.90;;;;;;5059885;28;20151;-73
2022/12/23 04:33:44;;;;;;;9.73;5.25;;;7.70;99.90;;;;;;5051863;28;20077;-74
2022/12/23 04:36:10;;;;;;;11.15;5.65;;;7.80;99.90;;;;;;5058437;28;20028;-74
2022/12/23 04:38:36;;;;;;;11.40;6.00;;;7.70;99.90;;;;;;5065544;28;20732;-74
2022/12/23 04:41:01;;;;;;;11.07;6.38;;;7.70;99.90;;;;;;5054107;28;20033;-74
2022/12/23 04:43:27;;;;;;;10.80;6.05;;;7.70;99.90;;;;;;5057615;28;20036;-74
2022/12/23 04:45:52;;;;;;;13.25;6.40;;;7.80;99.90;;;;;;5055903;28;20040;-74
2022/12/23 04:48:18;;;;;;;11.23;5.75;;;7.70;99.90;;;;;;5057853;28;20054;-74
2022/12/23 04:50:43;;;;;;;11.27;6.18;;;7.80;99.90;;;;;;5055856;28;20029;-74
2022/12/23 04:53:09;;;;;;;10.98;6.28;;;7.80;99.90;;;;;;5054342;28;20522;-73
2022/12/23 04:55:35;;;;;;;10.77;6.20;;;7.80;99.90;;;;;;5055512;28;20081;-74
2022/12/23 04:58:00;;;;;;;11.75;6.20;;;7.80;99.90;;;;;;5058322;28;20036;-73
2022/12/23 05:00:26;;;;;;;14.90;8.38;;;7.80;99.90;;;;;;5057726;28;20036;-74
2022/12/23 05:02:51;;;;;;;20.25;8.77;;;7.80;99.90;;;;;;5054213;28;20577;-74
2022/12/23 05:05:17;;;;;;;11.63;7.05;;;7.80;99.90;;;;;;5058797;28;20035;-74
2022/12/23 05:07:42;;;;;;;10.05;5.93;;;7.80;99.90;;;;;;5057565;28;20040;-74
2022/12/23 05:10:09;;;;;;;9.23;5.90;;;7.80;99.90;;;;;;5058414;28;20550;-74
2022/12/23 05:12:34;;;;;;;9.80;6.43;;;7.80;99.90;;;;;;5053915;28;20031;-73
2022/12/23 05:15:00;;;;;;;10.50;6.28;;;7.80;99.90;;;;;;5060833;28;20948;-73
2022/12/23 05:17:25;;;;;;;10.32;6.82;;;7.80;99.90;;;;;;5056590;28;20040;-73
2022/12/23 05:19:51;;;;;;;12.82;6.90;;;7.70;99.90;;;;;;5050772;28;20141;-73
2022/12/23 05:22:16;;;;;;;11.13;6.55;;;7.70;99.90;;;;;;5048528;28;20463;-73
2022/12/23 05:24:42;;;;;;;10.18;6.82;;;7.70;99.90;;;;;;5054475;28;20054;-74
2022/12/23 05:27:08;;;;;;;8.00;6.03;;;7.70;99.90;;;;;;5058262;28;20043;-73
2022/12/23 05:29:33;;;;;;;10.02;6.32;;;7.60;99.90;;;;;;5054795;28;20069;-73
2022/12/23 05:31:59;;;;;;;12.93;7.35;;;7.60;99.90;;;;;;5060009;28;20016;-73
2022/12/23 05:34:24;;;;;;;11.52;7.20;;;7.60;99.90;;;;;;5050598;28;20130;-73
2022/12/23 05:36:50;;;;;;;13.00;7.57;;;7.60;99.90;;;;;;5056185;28;20024;-73
2022/12/23 05:39:15;;;;;;;11.93;7.32;;;7.60;99.90;;;;;;5060117;28;20050;-73
2022/12/23 05:41:41;;;;;;;11.35;6.47;;;7.60;99.90;;;;;;5055363;28;20110;-73
2022/12/23 05:44:07;;;;;;;16.40;8.10;;;7.60;99.90;;;;;;5054985;28;20020;-74
2022/12/23 05:46:32;;;;;;;13.02;7.00;;;7.60;99.90;;;;;;5054322;28;20053;-74
2022/12/23 05:48:58;;;;;;;9.45;5.82;;;7.60;99.90;;;;;;5053791;28;20505;-74
2022/12/23 05:51:23;;;;;;;7.45;5.10;;;7.60;99.90;;;;;;5055875;28;20025;-73
2022/12/23 05:53:49;;;;;;;8.10;5.32;;;7.70;99.90;;;;;;5053227;28;20393;-74
2022/12/23 05:56:14;;;;;;;9.32;5.70;;;7.70;99.90;;;;;;5053820;28;20024;-74
2022/12/23 05:58:40;;;;;;;7.13;5.22;;;7.80;99.90;;;;;;5059845;28;20024;-74
2022/12/23 06:01:05;;;;;;;12.20;5.80;;;7.80;99.90;;;;;;5054934;28;20757;-73
2022/12/23 06:03:31;;;;;;;8.27;5.32;;;7.80;99.90;;;;;;5053869;28;20490;-74
2022/12/23 06:05:57;;;;;;;10.57;5.53;;;7.80;99.90;;;;;;5062268;28;20036;-74
2022/12/23 06:08:22;;;;;;;9.68;5.72;;;7.80;99.90;;;;;;5083305;28;20024;-74
2022/12/23 06:10:48;;;;;;;10.13;5.35;;;7.80;99.90;;;;;;5083724;28;20032;-74
2022/12/23 06:13:14;;;;;;;10.95;5.22;;;7.80;99.90;;;;;;5077285;28;20024;-73
2022/12/23 06:15:39;;;;;;;9.80;5.18;;;7.80;99.90;;;;;;5056626;28;20513;-74
2022/12/23 06:18:05;;;;;;;9.13;5.50;;;7.90;99.90;;;;;;5060806;28;20115;-74
2022/12/23 06:20:30;;;;;;;9.02;5.43;;;7.90;99.90;;;;;;5062454;28;20122;-73
2022/12/23 06:22:56;;;;;;;9.45;5.90;;;7.90;99.90;;;;;;5057267;28;20032;-73
2022/12/23 06:25:22;;;;;;;10.13;5.80;;;7.90;99.90;;;;;;5062949;28;20060;-74
2022/12/23 06:27:47;;;;;;;11.13;6.20;;;7.90;99.90;;;;;;5061772;28;20063;-73
2022/12/23 06:30:13;;;;;;;10.77;6.28;;;7.90;99.90;;;;;;5060610;28;20126;-73
2022/12/23 06:32:39;;;;;;;11.82;6.32;;;7.90;99.90;;;;;;5061560;28;20024;-73
2022/12/23 06:35:06;;;;;;;14.68;8.82;;;7.90;99.90;;;;;;5063737;28;20086;-74
2022/12/23 06:37:32;;;;;;;11.60;7.47;;;8.00;99.90;;;;;;5060212;28;20501;-74
2022/12/23 06:39:57;;;;;;;15.60;8.93;;;8.00;99.90;;;;;;5069701;28;20024;-73
2022/12/23 06:42:23;;;;;;;16.17;8.95;;;8.00;99.90;;;;;;5057782;28;20024;-73
2022/12/23 06:44:48;;;;;;;10.95;8.05;;;8.10;99.90;;;;;;5056748;28;21047;-74
2022/12/23 06:47:14;;;;;;;9.88;6.30;;;8.10;99.90;;;;;;5061410;28;20096;-73
2022/12/23 06:49:40;;;;;;;10.80;5.90;;;8.10;99.90;;;;;;5060162;28;20040;-73
2022/12/23 06:52:05;;;;;;;9.57;5.90;;;8.10;99.90;;;;;;5057553;28;20028;-73
2022/12/23 06:54:31;;;;;;;7.72;4.95;;;8.20;99.90;;;;;;5055456;28;20110;-73
2022/12/23 06:56:56;;;;;;;8.02;5.30;;;8.20;99.90;;;;;;5064998;28;20024;-73
2022/12/23 06:59:22;;;;;;;11.32;5.53;;;8.20;99.90;;;;;;5065753;28;20115;-73
2022/12/23 07:01:47;;;;;;;7.07;5.00;;;8.20;99.90;;;;;;5065923;28;20094;-73
2022/12/23 07:04:13;;;;;;;7.97;4.90;;;8.20;99.90;;;;;;5053350;28;20036;-73
2022/12/23 07:06:39;;;;;;;8.35;4.93;;;8.20;99.90;;;;;;5069177;28;20030;-74
2022/12/23 07:09:06;;;;;;;6.70;4.88;;;8.20;99.90;;;;;;5079477;28;20028;-73
2022/12/23 07:11:31;;;;;;;7.80;5.03;;;8.30;99.90;;;;;;5078781;28;20112;-74
2022/12/23 07:13:59;;;;;;;7.03;4.72;;;8.20;99.90;;;;;;5068240;28;20028;-74
2022/12/23 07:16:24;;;;;;;5.13;4.18;;;8.20;99.90;;;;;;5076250;28;20017;-74
2022/12/23 07:18:50;;;;;;;6.22;4.50;;;8.20;99.90;;;;;;5070012;28;20049;-74
2022/12/23 07:21:16;;;;;;;10.38;4.40;;;8.20;99.90;;;;;;5082946;28;20026;-74
2022/12/23 07:23:41;;;;;;;7.53;4.53;;;8.20;99.90;;;;;;5079111;28;20046;-74
2022/12/23 07:26:07;;;;;;;9.50;4.57;;;8.20;99.90;;;;;;5082765;28;20026;-74
2022/12/23 07:28:33;;;;;;;7.40;4.40;;;8.20;99.90;;;;;;5082807;28;20106;-74
2022/12/23 07:30:58;;;;;;;6.25;4.10;;;8.30;99.90;;;;;;5068451;28;20305;-74
2022/12/23 07:33:24;;;;;;;8.30;4.25;;;8.30;99.90;;;;;;5072367;28;20039;-74
2022/12/23 07:35:49;;;;;;;6.18;4.05;;;8.30;99.90;;;;;;5082907;28;20024;-73
2022/12/23 07:38:15;;;;;;;7.88;4.07;;;8.30;99.90;;;;;;5080139;28;20020;-73
2022/12/23 07:40:40;;;;;;;7.60;4.15;;;8.30;99.90;;;;;;5078359;28;20024;-74
2022/12/23 07:43:06;;;;;;;9.77;3.80;;;8.20;99.90;;;;;;5085574;28;20540;-73
2022/12/23 07:45:32;;;;;;;6.68;3.97;;;8.30;99.90;;;;;;5087371;28;20055;-73
2022/12/23 07:48:00;;;;;;;6.28;3.75;;;8.30;99.90;;;;;;5084793;28;20360;-73
2022/12/23 07:50:26;;;;;;;4.88;3.88;;;8.30;99.90;;;;;;5083345;28;20051;-73
2022/12/23 07:52:53;;;;;;;5.80;3.63;;;8.30;99.90;;;;;;5084844;28;20038;-73
2022/12/23 07:55:18;;;;;;;4.32;3.83;;;8.30;99.90;;;;;;5085360;28;20051;-73
2022/12/23 07:57:51;;;;;;;5.80;3.63;;;8.30;99.90;;;;;;5078733;28;20036;-73
2022/12/23 08:00:18;;;;;;;4.97;2.93;;;8.30;99.90;;;;;;5075914;28;20668;-73
2022/12/23 08:02:44;;;;;;;5.03;3.90;;;8.30;99.90;;;;;;5080186;28;20051;-73
2022/12/23 08:05:10;;;;;;;7.25;3.67;;;8.30;99.90;;;;;;5082896;28;20016;-73
2022/12/23 08:07:36;;;;;;;5.60;4.00;;;8.30;99.90;;;;;;5083622;28;20038;-73
2022/12/23 08:10:03;;;;;;;8.88;4.30;;;8.30;99.90;;;;;;5079379;28;20055;-73
2022/12/23 08:12:28;;;;;;;4.32;3.70;;;8.30;99.90;;;;;;5072602;28;20032;-73
2022/12/23 08:14:54;;;;;;;9.60;4.10;;;8.30;99.90;;;;;;5077686;28;20031;-73
2022/12/23 08:17:20;;;;;;;9.55;4.10;;;8.30;99.90;;;;;;5079373;28;20589;-73
2022/12/23 08:19:49;;;;;;;5.38;4.22;;;8.30;99.90;;;;;;5077992;28;20028;-73
2022/12/23 08:22:15;;;;;;;7.35;4.72;;;8.30;99.90;;;;;;5083695;28;20618;-73
2022/12/23 08:24:40;;;;;;;7.80;4.90;;;8.30;99.90;;;;;;5083758;28;20042;-73
2022/12/23 08:27:06;;;;;;;8.10;4.57;;;8.30;99.90;;;;;;5082980;28;20036;-73
2022/12/23 08:29:32;;;;;;;7.82;4.60;;;8.30;99.90;;;;;;5088875;28;20032;-73
2022/12/23 08:31:57;;;;;;;6.82;4.65;;;8.30;99.90;;;;;;5081045;28;20414;-74
2022/12/23 08:34:26;;;;;;;5.28;4.72;;;8.30;99.90;;;;;;5075201;28;20194;-73
2022/12/23 08:36:51;;;;;;;7.20;4.85;;;8.40;99.90;;;;;;5070181;28;20119;-73
2022/12/23 08:39:17;;;;;;;8.00;4.93;;;8.40;99.90;;;;;;5083962;28;20154;-73
2022/12/23 08:41:45;;;;;;;7.10;5.07;;;8.40;99.90;;;;;;5087525;28;20040;-73
2022/12/23 08:44:12;;;;;;;7.05;4.53;;;8.50;99.90;;;;;;5080184;28;20020;-73
2022/12/23 08:46:38;;;;;;;8.48;4.20;;;8.50;99.90;;;;;;5078230;28;20049;-73
2022/12/23 08:49:05;;;;;;;7.93;4.93;;;8.50;99.90;;;;;;5084219;28;20450;-73
2022/12/23 08:51:30;;;;;;;6.15;4.65;;;8.50;99.90;;;;;;5075425;28;20077;-73
2022/12/23 08:53:58;;;;;;;7.68;5.15;;;8.50;99.90;;;;;;5076810;28;20422;-74
2022/12/23 08:56:26;;;;;;;8.25;4.68;;;8.60;99.90;;;;;;5082133;28;20564;-73
2022/12/23 08:58:53;;;;;;;8.23;4.78;;;8.60;99.90;;;;;;5079749;28;20043;-73
2022/12/23 09:01:21;;;;;;;9.10;5.38;;;8.70;99.90;;;;;;5070312;28;20033;-73
2022/12/23 09:03:47;;;;;;;7.75;5.13;;;8.70;99.90;;;;;;5081027;28;20028;-73
2022/12/23 09:06:39;;;;;;;5.97;4.47;;;8.70;99.90;;;;;;5076901;28;20020;-73
2022/12/23 09:09:06;;;;;;;6.10;4.50;;;8.70;99.90;;;;;;5076531;28;20408;-73
2022/12/23 09:11:32;;;;;;;9.93;4.35;;;8.70;99.90;;;;;;5085590;28;20404;-73
2022/12/23 09:14:00;;;;;;;8.23;4.25;;;8.80;99.90;;;;;;5077728;28;20016;-73
2022/12/23 09:16:26;;;;;;;5.53;3.88;;;8.70;99.90;;;;;;5076141;28;20086;-73
2022/12/23 09:18:52;;;;;;;6.18;4.10;;;8.80;99.90;;;;;;5082426;28;20050;-73
2022/12/23 09:21:20;;;;;;;8.05;4.20;;;8.80;99.90;;;;;;5083012;28;20501;-73
2022/12/23 09:23:46;;;;;;;5.22;3.55;;;8.80;99.90;;;;;;5079380;28;20504;-73
2022/12/23 09:26:19;;;;;;;7.43;3.53;;;8.80;99.90;;;;;;5080189;28;20047;-73
2022/12/23 09:28:44;;;;;;;7.73;3.40;;;8.90;99.90;;;;;;5079317;28;20397;-73
2022/12/23 09:31:11;;;;;;;7.20;3.08;;;8.90;99.90;;;;;;5081698;28;20024;-73
2022/12/23 09:33:37;;;;;;;4.47;2.75;;;9.00;99.90;;;;;;5082960;28;20028;-73
2022/12/23 09:36:04;;;;;;;3.80;2.70;;;9.00;99.90;;;;;;5085135;28;20397;-73
2022/12/23 09:38:30;;;;;;;4.05;2.60;;;9.10;99.90;;;;;;5079441;28;20032;-73
2022/12/23 09:41:09;;;;;;;4.07;2.53;;;9.20;99.90;;;;;;5070580;28;20033;-73
2022/12/23 09:43:59;;;;;;;5.22;2.80;;;9.20;99.90;;;;;;5076604;28;20075;-72
2022/12/23 09:46:31;;;;;;;4.53;2.70;;;9.20;99.90;;;;;;5079346;28;20483;-73
2022/12/23 09:49:11;;;;;;;3.75;2.88;;;9.20;99.90;;;;;;5082868;28;20047;-73
2022/12/23 09:51:37;;;;;;;2.88;2.20;;;9.20;99.90;;;;;;5084727;28;20024;-73
2022/12/23 09:54:23;;;;;;;4.28;2.78;;;9.20;99.90;;;;;;5072436;28;20029;-73
2022/12/23 09:57:13;;;;;;;4.57;2.40;;;9.20;99.90;;;;;;5073073;28;20016;-73
2022/12/23 10:00:05;;;;;;;4.72;2.50;;;9.30;99.90;;;;;;5077432;28;20028;-74
2022/12/23 10:02:41;;;;;;;5.28;3.47;;;9.30;99.90;;;;;;5079103;28;20028;-74
2022/12/23 10:05:22;;;;;;;7.32;4.25;;;9.30;99.90;;;;;;5076697;28;20032;-74
2022/12/23 10:07:49;;;;;;;5.13;3.28;;;9.30;99.90;;;;;;5078326;28;20233;-73
2022/12/23 10:10:39;;;;;;;5.07;3.00;;;9.30;99.90;;;;;;5082519;28;20027;-73
2022/12/23 10:13:09;;;;;;;5.13;3.25;;;9.30;99.90;;;;;;5077485;28;20322;-73
2022/12/23 10:15:46;;;;;;;4.47;3.13;;;9.40;99.90;;;;;;5075099;28;20024;-73
2022/12/23 10:18:22;;;;;;;6.45;3.65;;;9.40;99.90;;;;;;5079099;28;20028;-73
2022/12/23 10:20:56;;;;;;;6.72;3.63;;;9.40;99.90;;;;;;5078209;28;20028;-73
2022/12/23 10:23:38;;;;;;;4.28;3.15;;;9.40;99.90;;;;;;5077370;28;20039;-73
2022/12/23 10:26:20;;;;;;;6.00;4.18;;;9.30;99.90;;;;;;5074207;28;20020;-73
2022/12/23 10:28:46;;;;;;;7.93;5.10;;;9.30;99.90;;;;;;5065858;28;20042;-73
2022/12/23 10:31:23;;;;;;;9.02;5.10;;;9.30;99.90;;;;;;5074055;28;20028;-75
2022/12/23 10:34:03;;;;;;;6.00;4.38;;;9.30;99.90;;;;;;5069210;28;20030;-75
2022/12/23 10:36:41;;;;;;;9.93;5.65;;;9.20;99.90;;;;;;5082495;28;20039;-76
2022/12/23 10:39:27;;;;;;;11.40;4.93;;;9.20;99.90;;;;;;5081780;28;20028;-75
2022/12/23 10:42:28;;;;;;;9.80;5.20;;;9.20;99.90;;;;;;5077240;28;20086;-75
2022/12/23 10:45:39;;;;;;;6.50;4.55;;;9.20;99.90;;;;;;5080807;28;20071;-75
2022/12/23 10:48:45;;;;;;;7.13;4.40;;;9.10;99.90;;;;;;4996303;28;20069;-75
2022/12/23 10:51:20;;;;;;;6.68;4.55;;;9.20;99.90;;;;;;4651192;28;10000995;-75
2022/12/23 10:53:56;;;;;;;8.27;4.53;;;9.20;99.90;;;;;;5057591;28;20032;-75
2022/12/23 10:56:22;;;;;;;7.57;4.70;;;9.10;99.90;;;;;;5066166;28;20028;-74
2022/12/23 10:58:53;;;;;;;8.93;5.70;;;9.10;99.90;;;;;;5074850;28;20072;-74
2022/12/23 11:01:18;;;;;;;8.82;5.43;;;9.20;99.90;;;;;;5081433;28;20032;-74
2022/12/23 11:04:06;;;;;;;7.03;5.47;;;9.10;99.90;;;;;;5080352;28;20028;-74
2022/12/23 11:06:36;;;;;;;9.70;5.78;;;9.10;99.90;;;;;;5083287;28;20035;-74
2022/12/23 11:09:03;;;;;;;7.65;5.00;;;;;;;;;;5079357;28;20025;-71
2022/12/23 11:11:49;;;;;;;10.63;4.97;;;;;;;;;;5083874;28;20024;-71
2022/12/23 11:14:33;;;;;;;9.13;5.97;;;;;;;;;;5064979;28;20089;-71
2022/12/23 11:16:59;;;;;;;8.15;5.05;;;;;;;;;;5081201;28;20035;-71
2022/12/23 11:19:25;;;;;;;8.00;5.70;;;;;;;;;;5084641;28;20077;-71
2022/12/23 11:21:56;;;;;;;10.55;5.28;;;;;;;;;;5078211;28;20036;-71
2022/12/23 11:24:23;;;;;;;8.88;5.45;;;;;;;;;;5076407;28;20039;-71
2022/12/23 11:26:50;;;;;;;9.23;5.20;;;;;;;;;;5079899;28;20521;-70
2022/12/23 11:29:24;;;;;;;7.68;4.25;;;;;;;;;;5077870;28;20039;-70
2022/12/23 11:31:50;;;;;;;7.03;4.05;;;;;;;;;;5077882;28;20089;-70
2022/12/23 11:34:18;;;;;;;8.75;4.15;;;;;;;;;;5082035;28;20020;-71
2022/12/23 11:36:50;;;;;;;8.93;5.50;;;;;;;;;;5075912;28;20043;-69
2022/12/23 11:39:22;;;;;;;8.25;4.82;;;;;;;;;;5077089;28;20067;-70
2022/12/23 11:41:50;;;;;;;11.50;5.70;;;;;;;;;;5079344;28;20053;-70
2022/12/23 11:44:32;;;;;;;11.55;5.32;;;;;;;;;;5077463;28;20046;-69
2022/12/23 11:47:16;;;;;;;7.28;4.05;;;;;;;;;;5080927;28;20032;-70
2022/12/23 11:49:48;;;;;;;7.13;4.40;;;;;;;;;;5075424;28;20032;-70
2022/12/23 11:52:17;;;;;;;6.63;4.40;;;;;;;;;;5076581;28;20786;-71
2022/12/23 11:54:49;;;;;;;6.15;4.35;;;;;;;;;;5078758;28;20416;-70
2022/12/23 11:57:16;;;;;;;9.40;4.55;;;;;;;;;;5077202;28;20052;-70
2022/12/23 11:59:49;;;;;;;7.47;4.20;;;9.20;99.90;;;;;;5079369;28;20490;-70
2022/12/23 12:02:28;;;;;;;6.70;4.20;;;9.20;99.90;;;;;;5077645;28;20390;-70
2022/12/23 12:04:59;;;;;;;7.63;4.00;;;9.20;99.90;;;;;;5081752;28;20662;-70
2022/12/23 12:07:25;;;;;;;6.70;3.80;;;9.20;99.90;;;;;;5079168;28;20639;-70
2022/12/23 12:09:51;;;;;;;5.85;3.88;;;9.20;99.90;;;;;;5079198;28;20111;-69
2022/12/23 12:12:19;;;;;;;10.00;4.38;;;9.20;99.90;;;;;;5079176;28;20020;-70
2022/12/23 12:14:53;;;;;;;6.40;4.13;;;9.20;99.90;;;;;;5075819;28;20012;-70
2022/12/23 12:17:37;;;;;;;;;;;9.20;99.90;;;;;;5079761;28;20028;-70
2022/12/23 12:20:03;;;;;;;;;;;9.30;99.90;;;;;;5077940;28;19912;-71
2022/12/23 12:23:13;;;;;;;9.90;4.15;;;9.30;99.90;;;;;;5070243;28;19939;-70
2022/12/23 12:25:45;;;;;;;6.63;3.03;;;9.30;99.90;;;;;;5076318;28;20111;-70
2022/12/23 12:28:17;;;;;;;5.80;2.53;;;9.30;99.90;;;;;;5078734;28;20121;-70
2022/12/23 12:30:49;;;;;;;6.30;2.80;;;9.30;99.90;;;;;;5076011;28;20032;-70
2022/12/23 12:33:21;;;;;;;4.15;2.63;;;9.30;99.90;;;;;;5075713;28;20035;-71
2022/12/23 12:35:49;;;;;;;7.07;4.45;;;9.30;99.90;;;;;;5076632;28;20032;-70
2022/12/23 12:38:20;;;;;;;8.35;4.60;;;9.30;99.90;;;;;;5079405;28;20043;-70
2022/12/23 12:40:50;;;;;;;12.23;6.70;;;9.30;99.90;;;;;;5078805;28;20397;-70
2022/12/23 12:43:30;;;;;;;11.55;5.25;;;9.30;99.90;;;;;;5078676;28;20918;-70
2022/12/23 12:46:05;;;;;;;11.20;6.10;;;9.20;99.90;;;;;;5074836;28;20460;-69
2022/12/23 12:49:04;;;;;;;9.65;4.70;;;9.20;99.90;;;;;;5080950;28;20040;-69
2022/12/23 12:51:42;;;;;;;11.70;5.60;;;9.20;99.90;;;;;;5072369;28;20032;-70
2022/12/23 12:54:33;;;;;;;8.38;4.53;;;9.10;99.90;;;;;;5069156;28;20020;-70
2022/12/23 12:57:01;;;;;;;5.78;3.85;;;9.10;99.90;;;;;;5072322;28;20085;-70
2022/12/23 12:59:31;;;;;;;8.48;4.72;;;9.10;99.90;;;;;;5073295;28;20276;-69
2022/12/23 13:02:08;;;;;;;9.07;3.35;;;9.00;99.90;;;;;;5066352;28;20129;-70
2022/12/23 13:04:51;;;;;;;6.75;3.00;;;9.00;99.90;;;;;;5072109;28;20226;-71
2022/12/23 13:07:47;;;;;;;5.60;2.80;;;9.00;99.90;;;;;;5079649;28;20035;-70
2022/12/23 13:10:32;;;;;;;7.93;2.58;;;8.90;99.90;;;;;;5074985;28;20086;-71
2022/12/23 13:13:16;;;;;;;4.53;2.92;;;8.90;99.90;;;;;;5071773;28;20089;-71
2022/12/23 13:15:42;;;;;;;3.85;3.00;;;9.00;99.90;;;;;;5075932;28;20028;-71
2022/12/23 13:18:10;;;;;;;5.47;2.60;;;9.00;99.90;;;;;;5092654;28;20039;-70
2022/12/23 13:20:45;;;;;;;5.97;2.78;;;8.90;99.90;;;;;;5079832;28;20103;-70
2022/12/23 13:23:39;;;;;;;3.38;2.33;;;8.90;99.90;;;;;;5073650;28;20471;-71
2022/12/23 13:26:18;;;;;;;2.33;1.70;;;8.90;99.90;;;;;;5073963;28;20116;-71
2022/12/23 13:29:03;;;;;;;3.33;1.85;;;8.90;99.90;;;;;;5072215;28;20047;-71
2022/12/23 13:31:39;;;;;;;4.75;1.90;;;8.90;99.90;;;;;;5079104;28;20031;-71
2022/12/23 13:34:31;;;;;;;2.80;2.30;;;8.90;99.90;;;;;;5069400;28;20082;-72
2022/12/23 13:37:34;;;;;;;3.97;2.58;;;8.90;99.90;;;;;;5073325;28;20032;-70
2022/12/23 13:40:36;;;;;;;5.07;2.78;;;8.90;99.90;;;;;;5056124;28;20056;-69
2022/12/23 13:43:11;;;;;;;5.45;3.00;;;8.90;99.90;;;;;;5071653;28;20020;-71
2022/12/23 13:45:38;;;;;;;5.35;2.95;;;8.90;99.90;;;;;;5073425;28;20386;-71
2022/12/23 13:48:31;;;;;;;5.80;3.05;;;8.90;99.90;;;;;;5058875;28;20467;-70